Norwegian Star — C6FR3 — position and weather

sailwx.info

Track history (hours):
 
Tides and Currents Weather Stations Pressure Air Temp Water Temp Dewpoint Dewpoint Depression Visibility Wind Speed Wind Dir Waves Ship Positions

Norwegian Star

Operator: Norwegian Cruise Line

Last reported at 2015-Sep-04 23:00 UTC. Time now 2015-Sep-05 01:05 UTC.
Position N 59°42' E 019°00'.

Type: Ship. MMSI: 311082000.

Wind from 270 at 16 knots

Waves 1.5 meters (5 feet), 4 second period

Barometer 1004.8 mb
Air temperature 15.5 ° C
Dewpoint 9.0 ° C
Water temperature 12.0 ° C

Date/timePositionNaut miles runAvg speedWind from/ knotsBaromVisibWave heightAir tempDewpointWater temp
2015-Sep-04 23:00N 59°42' E 019°00'27 3.6 270 / 161004.8 1.515.5 9.012.0
2015-Sep-04 15:26N 59°22' E 018°24'910.2
2015-Sep-04 14:32N 59°19' E 018°07'1 0.7
2015-Sep-04 13:33N 59°19' E 018°06'0 0.0
2015-Sep-04 12:33N 59°19' E 018°06'0 0.0
2015-Sep-04 11:33N 59°19' E 018°06'0 0.0
2015-Sep-04 10:33N 59°19' E 018°06'0 0.0
2015-Sep-04 09:33N 59°19' E 018°06'0 0.0
2015-Sep-04 08:33N 59°19' E 018°06'0 0.0
2015-Sep-04 07:33N 59°19' E 018°06'2 2.3
2015-Sep-04 06:33N 59°19' E 018°10'9 8.6
2015-Sep-04 05:30N 59°23' E 018°27'52 9.4
2015-Sep-04 00:00N 59°36' E 020°06'1515.2 240 / 191011.8 1.015.813.314.0
2015-Sep-03 23:00N 59°36' E 020°36'614.2 250 / 241012.0 1.017.012.014.0
2015-Sep-03 22:33N 59°34' E 020°47'1018.0
2015-Sep-03 22:00N 59°30' E 021°06'511.0 240 / 221012.0 1.016.911.214.0
2015-Sep-03 21:33N 59°29' E 021°15'813.8
2015-Sep-03 21:00N 59°30' E 021°30'817.6 240 / 151012.0 1.016.711.914.0
2015-Sep-03 20:33N 59°27' E 021°44'1615.1
2015-Sep-03 19:29N 59°28' E 022°16'1715.1
2015-Sep-03 18:23N 59°34' E 022°47'1315.2
2015-Sep-03 17:33N 59°37' E 023°11'1515.2
2015-Sep-03 16:33N 59°41' E 023°40'1615.8
2015-Sep-03 15:33N 59°46' E 024°10'30 4.6
2015-Sep-03 09:00N 60°06' E 024°54'0 0.0 110 / 181013.0 2.2 0.516.1
2015-Sep-03 07:00N 60°06' E 024°54'25 4.2 090 / 251013.0 2.2 0.515.2
2015-Sep-03 01:04N 59°55' E 025°38'917.2
2015-Sep-03 00:33N 59°57' E 025°56'1817.7
2015-Sep-02 23:33N 60°01' E 026°30'611.1
2015-Sep-02 23:00N 60°00' E 026°42'1124.9 090 / 181012.0 0.514.812.013.0
2015-Sep-02 22:32N 59°59' E 027°04'7416.5
2015-Sep-02 18:04N 60°01' E 029°32'712.8
2015-Sep-02 17:33N 59°59' E 029°44'1010.4
2015-Sep-02 16:33N 59°56' E 030°04'4 3.7
2015-Sep-02 15:31N 59°57' E 030°11'0 0.0
2015-Sep-02 14:31N 59°57' E 030°11'0 0.0
2015-Sep-02 13:31N 59°57' E 030°11'0 0.0
2015-Sep-02 12:31N 59°57' E 030°11'0 0.0
2015-Sep-02 11:31N 59°57' E 030°11'0 0.0
2015-Sep-02 10:31N 59°57' E 030°11'0 0.0
2015-Sep-02 09:31N 59°57' E 030°11'0 0.0
2015-Sep-02 08:31N 59°57' E 030°11'3 5.3
2015-Sep-02 08:00N 59°54' E 030°12'3 5.8 090 / 61012.0 5.4 20.1
2015-Sep-02 07:31N 59°57' E 030°11'3 5.3
2015-Sep-02 07:00N 59°54' E 030°12'3 5.8 090 / 81012.010.8 18.5
2015-Sep-02 06:31N 59°57' E 030°11'0 0.0
2015-Sep-02 05:31N 59°57' E 030°11'3 5.3
2015-Sep-02 05:00N 59°54' E 030°12'3 5.3 050 / 41007.0 16.0 18.0
2015-Sep-02 04:28N 59°57' E 030°11'0 0.0
2015-Sep-02 03:31N 59°57' E 030°11'0 0.0
2015-Sep-02 02:31N 59°57' E 030°11'0 0.0
2015-Sep-02 01:31N 59°57' E 030°11'0 0.0
2015-Sep-02 00:31N 59°57' E 030°11'3 5.3
2015-Sep-02 00:00N 59°54' E 030°12'3 5.8 020 / 81013.0 17.115.016.0
2015-Sep-01 23:31N 59°57' E 030°11'3 5.3
2015-Sep-01 23:00N 59°54' E 030°12'3 5.8 330 / 71013.0 17.215.016.0
2015-Sep-01 22:31N 59°57' E 030°11'3 5.3
2015-Sep-01 22:00N 59°54' E 030°12'3 5.8 320 / 71013.0 17.013.016.0
2015-Sep-01 21:31N 59°57' E 030°11'3058.0
2015-Sep-01 21:00N 59°54' E 031°12'3064.1 330 / 81013.0 17.715.018.0
2015-Sep-01 20:31N 59°57' E 030°11'0 0.0
2015-Sep-01 19:31N 59°57' E 030°11'3 5.3
2015-Sep-01 19:00N 59°54' E 030°12'3 5.8 270 / 81013.0 5.4 18.9
2015-Sep-01 18:31N 59°57' E 030°11'3 5.3
2015-Sep-01 18:00N 59°54' E 030°12'3 5.8 270 / 71013.0 5.4 19.3
2015-Sep-01 17:31N 59°57' E 030°11'3 5.3
2015-Sep-01 17:00N 59°54' E 030°12'3 5.8 270 / 61013.0 5.4 19.6
2015-Sep-01 16:31N 59°57' E 030°11'3 5.3
2015-Sep-01 16:00N 59°54' E 030°12'3 5.8 290 / 61013.0 5.4 19.9
2015-Sep-01 15:31N 59°57' E 030°11'0 0.0
2015-Sep-01 14:31N 59°57' E 030°11'3 5.3
2015-Sep-01 14:00N 59°54' E 030°12'3 5.3 280 / 111014.0 21.016.017.0
2015-Sep-01 13:28N 59°57' E 030°11'0 0.0
2015-Sep-01 12:31N 59°57' E 030°11'0 0.0
2015-Sep-01 11:31N 59°57' E 030°11'0 0.0
2015-Sep-01 10:31N 59°57' E 030°11'0 0.0
2015-Sep-01 09:31N 59°57' E 030°11'0 0.0
2015-Sep-01 08:31N 59°57' E 030°11'0 0.0
2015-Sep-01 07:31N 59°57' E 030°11'0 0.0
2015-Sep-01 06:31N 59°57' E 030°11'0 0.0
2015-Sep-01 05:25N 59°57' E 030°11'0 0.0
2015-Sep-01 04:33N 59°57' E 030°11'5 5.2
2015-Sep-01 03:33N 59°56' E 030°02'1110.6
2015-Sep-01 02:33N 59°59' E 029°42'1811.5
2015-Sep-01 01:00N 60°00' E 029°06'2813.8 200 / 71016.0 0.516.516.016.0
2015-Aug-31 23:00N 60°06' E 028°12'1313.4 250 / 121017.027.0 0.517.016.016.0
2015-Aug-31 22:00N 60°12' E 027°48'2815.1 270 / 91017.0 17.115.716.0
2015-Aug-31 20:07N 59°58' E 026°59'813.8
2015-Aug-31 19:33N 59°59' E 026°43'1614.9
2015-Aug-31 18:27N 59°56' E 026°11'1516.8
2015-Aug-31 17:33N 59°51' E 025°42'1616.7
2015-Aug-31 16:33N 59°46' E 025°11'1716.6
2015-Aug-31 15:33N 59°38' E 024°42'1111.2
2015-Aug-31 14:33N 59°27' E 024°46'0 0.0
2015-Aug-31 13:32N 59°27' E 024°46'0 0.0
2015-Aug-31 12:33N 59°27' E 024°46'0 0.0
2015-Aug-31 11:33N 59°27' E 024°46'0 0.0
2015-Aug-31 10:33N 59°27' E 024°46'0 0.0
2015-Aug-31 09:20N 59°27' E 024°46'3 9.1
2015-Aug-31 09:00N 59°30' E 024°48'3 7.1 320 / 31019.0 5.4 18.2
2015-Aug-31 08:33N 59°27' E 024°46'3 5.8
2015-Aug-31 08:00N 59°30' E 024°48'3 7.2 300 / 81019.0 5.4 17.6
2015-Aug-31 07:33N 59°27' E 024°46'0 0.0
2015-Aug-31 06:33N 59°27' E 024°46'0 0.0
2015-Aug-31 05:20N 59°27' E 024°46'6 7.2
2015-Aug-31 04:33N 59°30' E 024°37'6516.3
2015-Aug-31 00:33N 59°18' E 022°30'916.6
2015-Aug-31 00:00N 59°18' E 022°12'818.6 240 / 121018.0 1.017.515.015.8
2015-Aug-30 23:33N 59°12' E 022°02'1616.2
2015-Aug-30 22:33N 59°01' E 021°37'814.8
2015-Aug-30 22:00N 58°54' E 021°30'3517.7 290 / 191018.0 1.017.915.016.0
2015-Aug-30 20:00N 58°24' E 020°54'11416.3 280 / 201019.0 5.4 0.517.8
2015-Aug-30 13:00N 56°54' E 018°42'2716.0 270 / 171021.0 1.020.015.017.0
2015-Aug-30 11:19N 56°37' E 018°05'6517.0
2015-Aug-30 07:28N 55°57' E 016°32'1717.8
2015-Aug-30 06:33N 55°48' E 016°06'1717.7
2015-Aug-30 05:33N 55°40' E 015°39'1818.0
2015-Aug-30 04:33N 55°32' E 015°11'1221.7
2015-Aug-30 04:00N 55°24' E 014°54'614.5 170 / 111017.010.8 17.0
2015-Aug-30 03:33N 55°24' E 014°43'1817.6
2015-Aug-30 02:33N 55°11' E 014°22'1717.4
2015-Aug-30 01:33N 54°60' E 013°59'1119.7
2015-Aug-30 01:00N 54°54' E 013°42'715.7 160 / 201023.0 1.017.715.816.0
2015-Aug-30 00:33N 54°54' E 013°30'1717.5
2015-Aug-29 23:34N 54°49' E 013°01'813.4
2015-Aug-29 23:00N 54°48' E 012°48'1023.3 190 / 231022.8 1.017.515.616.0
2015-Aug-29 22:33N 54°42' E 012°34'1716.6
2015-Aug-29 21:33N 54°30' E 012°14'1616.3
2015-Aug-29 20:33N 54°15' E 012°04'5 4.5
2015-Aug-29 19:32N 54°10' E 012°06'0 0.0
2015-Aug-29 18:32N 54°10' E 012°06'2 3.1
2015-Aug-29 18:00N 54°12' E 012°06'2 3.7 090 / 61023.010.8 20.1
2015-Aug-29 17:32N 54°10' E 012°06'2 3.1
2015-Aug-29 17:00N 54°12' E 012°06'2 3.7 120 / 41023.0 5.4 20.2
2015-Aug-29 16:32N 54°10' E 012°06'2 3.1
2015-Aug-29 16:00N 54°12' E 012°06'2 3.7 040 / 71023.0 20.216.517.0
2015-Aug-29 15:32N 54°10' E 012°06'0 0.0
2015-Aug-29 14:32N 54°10' E 012°06'0 0.0
2015-Aug-29 13:32N 54°10' E 012°06'0 0.0
2015-Aug-29 12:32N 54°10' E 012°06'0 0.0
2015-Aug-29 11:32N 54°10' E 012°06'0 0.0
2015-Aug-29 10:32N 54°10' E 012°06'2 3.1
2015-Aug-29 10:00N 54°12' E 012°06'2 3.7 320 / 101025.0 5.4 18.5
2015-Aug-29 09:32N 54°10' E 012°06'0 0.0
2015-Aug-29 08:26N 54°10' E 012°06'0 0.0
2015-Aug-29 07:32N 54°10' E 012°06'0 0.0
2015-Aug-29 06:29N 54°10' E 012°06'0 0.0
2015-Aug-29 05:32N 54°10' E 012°06'5 4.9
2015-Aug-29 04:33N 54°15' E 012°02'1313.6
2015-Aug-29 03:33N 54°23' E 011°44'1615.7
2015-Aug-29 02:33N 54°32' E 011°21'1017.4
2015-Aug-29 02:00N 54°36' E 011°06'613.4 240 / 231016.0 1.016.314.015.0
2015-Aug-29 01:33N 54°39' E 010°58'1313.4
2015-Aug-29 00:33N 54°52' E 010°52'915.6
2015-Aug-29 00:00N 55°00' E 011°00'7113.0 240 / 171019.0 0.516.312.015.0
2015-Aug-28 18:32N 56°06' E 011°43'2020.7
2015-Aug-28 17:33N 56°13' E 012°18'1817.7
2015-Aug-28 16:33N 56°01' E 012°41'1414.0
2015-Aug-28 15:33N 55°46' E 012°43'5 4.7
2015-Aug-28 14:33N 55°43' E 012°37'0 0.0
2015-Aug-28 13:33N 55°43' E 012°37'0 0.0
2015-Aug-28 12:33N 55°43' E 012°37'0 0.0
2015-Aug-28 11:33N 55°43' E 012°37'0 0.0
2015-Aug-28 10:33N 55°43' E 012°37'0 0.0
2015-Aug-28 09:32N 55°43' E 012°37'1 2.0
2015-Aug-28 09:00N 55°42' E 012°36'1 2.4 300 / 151013.010.8 19.1
2015-Aug-28 08:32N 55°43' E 012°37'0 0.0
2015-Aug-28 07:32N 55°43' E 012°37'0 0.0
2015-Aug-28 06:32N 55°43' E 012°37'0 0.0
2015-Aug-28 05:33N 55°43' E 012°37'0 0.0
2015-Aug-28 04:34N 55°43' E 012°37'4 4.1
2015-Aug-28 03:34N 55°46' E 012°42'1414.3
2015-Aug-28 02:33N 56°00' E 012°40'1716.9
2015-Aug-28 01:33N 56°12' E 012°18'1817.7
2015-Aug-28 00:33N 56°07' E 011°47'4116.1
2015-Aug-27 22:00N 55°42' E 010°48'3020.2 240 / 141007.4 1.016.215.415.5
2015-Aug-27 20:30N 55°14' E 011°06'1313.4
2015-Aug-27 19:33N 55°01' E 011°02'1818.1
2015-Aug-27 18:33N 54°44' E 010°53'1918.8
2015-Aug-27 17:33N 54°34' E 011°20'2019.8
2015-Aug-27 16:33N 54°26' E 011°51'1716.6
2015-Aug-27 15:33N 54°35' E 012°15'1919.5
2015-Aug-27 14:33N 54°46' E 012°42'2020.1
2015-Aug-27 13:32N 54°54' E 013°15'2020.9
2015-Aug-27 12:33N 55°01' E 013°49'2020.3
2015-Aug-27 11:33N 55°12' E 014°18'2120.6
2015-Aug-27 10:34N 55°28' E 014°42'2020.4
2015-Aug-27 09:33N 55°37' E 015°14'2120.7
2015-Aug-27 08:33N 55°48' E 015°46'2121.2
2015-Aug-27 07:33N 55°59' E 016°18'2020.5
2015-Aug-27 06:33N 56°12' E 016°47'2120.7
2015-Aug-27 05:33N 56°30' E 017°04'2121.1
2015-Aug-27 04:34N 56°50' E 017°18'2121.1
2015-Aug-27 03:33N 57°10' E 017°30'2121.0
2015-Aug-27 02:33N 57°30' E 017°40'2121.1
2015-Aug-27 01:33N 57°49' E 017°56'1221.4
2015-Aug-27 01:00N 58°00' E 018°06'80 7.6 190 / 141012.0 1.017.916.016.0
2015-Aug-26 14:30N 59°20' E 018°12'4 0.8
2015-Aug-26 10:00N 59°18' E 018°06'0 0.0 230 / 111012.0 5.4 11.0
2015-Aug-26 09:00N 59°18' E 018°06'0 0.0 230 / 141011.0 5.4 17.0
2015-Aug-26 08:00N 59°18' E 018°06'1 0.6 210 / 121011.0 5.4 17.0
2015-Aug-26 06:26N 59°19' E 018°06'38 8.6
2015-Aug-26 02:00N 59°42' E 019°06'4314.3 190 / 151007.5 0.518.118.018.0
2015-Aug-25 23:00N 59°36' E 020°30'   190 / 311007.5 1.018.918.018.0
Track history (hours):
 
Tides and Currents Weather Stations Pressure Air Temp Water Temp Dewpoint Dewpoint Depression Visibility Wind Speed Wind Dir Waves Ship Positions

Norwegian Star

Operator: Norwegian Cruise Line

Last reported at 2015-Sep-04 23:00 UTC. Time now 2015-Sep-05 01:05 UTC.
Position N 59°42' E 019°00'.

Type: Ship. MMSI: 311082000.

Wind from 270 at 16 knots

Waves 1.5 meters (5 feet), 4 second period

Barometer 1004.8 mb
Air temperature 15.5 ° C
Dewpoint 9.0 ° C
Water temperature 12.0 ° C

Date/timePositionNaut miles runAvg speedWind from/ knotsBaromVisibWave heightAir tempDewpointWater temp
2015-Sep-04 23:00N 59°42' E 019°00'27 3.6 270 / 161004.8 1.515.5 9.012.0
2015-Sep-04 15:26N 59°22' E 018°24'910.2
2015-Sep-04 14:32N 59°19' E 018°07'1 0.7
2015-Sep-04 13:33N 59°19' E 018°06'0 0.0
2015-Sep-04 12:33N 59°19' E 018°06'0 0.0
2015-Sep-04 11:33N 59°19' E 018°06'0 0.0
2015-Sep-04 10:33N 59°19' E 018°06'0 0.0
2015-Sep-04 09:33N 59°19' E 018°06'0 0.0
2015-Sep-04 08:33N 59°19' E 018°06'0 0.0
2015-Sep-04 07:33N 59°19' E 018°06'2 2.3
2015-Sep-04 06:33N 59°19' E 018°10'9 8.6
2015-Sep-04 05:30N 59°23' E 018°27'52 9.4
2015-Sep-04 00:00N 59°36' E 020°06'1515.2 240 / 191011.8 1.015.813.314.0
2015-Sep-03 23:00N 59°36' E 020°36'614.2 250 / 241012.0 1.017.012.014.0
2015-Sep-03 22:33N 59°34' E 020°47'1018.0
2015-Sep-03 22:00N 59°30' E 021°06'511.0 240 / 221012.0 1.016.911.214.0
2015-Sep-03 21:33N 59°29' E 021°15'813.8
2015-Sep-03 21:00N 59°30' E 021°30'817.6 240 / 151012.0 1.016.711.914.0
2015-Sep-03 20:33N 59°27' E 021°44'1615.1
2015-Sep-03 19:29N 59°28' E 022°16'1715.1
2015-Sep-03 18:23N 59°34' E 022°47'1315.2
2015-Sep-03 17:33N 59°37' E 023°11'1515.2
2015-Sep-03 16:33N 59°41' E 023°40'1615.8
2015-Sep-03 15:33N 59°46' E 024°10'30 4.6
2015-Sep-03 09:00N 60°06' E 024°54'0 0.0 110 / 181013.0 2.2 0.516.1
2015-Sep-03 07:00N 60°06' E 024°54'25 4.2 090 / 251013.0 2.2 0.515.2
2015-Sep-03 01:04N 59°55' E 025°38'917.2
2015-Sep-03 00:33N 59°57' E 025°56'1817.7
2015-Sep-02 23:33N 60°01' E 026°30'611.1
2015-Sep-02 23:00N 60°00' E 026°42'1124.9 090 / 181012.0 0.514.812.013.0
2015-Sep-02 22:32N 59°59' E 027°04'7416.5
2015-Sep-02 18:04N 60°01' E 029°32'712.8
2015-Sep-02 17:33N 59°59' E 029°44'1010.4
2015-Sep-02 16:33N 59°56' E 030°04'4 3.7
2015-Sep-02 15:31N 59°57' E 030°11'0 0.0
2015-Sep-02 14:31N 59°57' E 030°11'0 0.0
2015-Sep-02 13:31N 59°57' E 030°11'0 0.0
2015-Sep-02 12:31N 59°57' E 030°11'0 0.0
2015-Sep-02 11:31N 59°57' E 030°11'0 0.0
2015-Sep-02 10:31N 59°57' E 030°11'0 0.0
2015-Sep-02 09:31N 59°57' E 030°11'0 0.0
2015-Sep-02 08:31N 59°57' E 030°11'3 5.3
2015-Sep-02 08:00N 59°54' E 030°12'3 5.8 090 / 61012.0 5.4 20.1
2015-Sep-02 07:31N 59°57' E 030°11'3 5.3
2015-Sep-02 07:00N 59°54' E 030°12'3 5.8 090 / 81012.010.8 18.5
2015-Sep-02 06:31N 59°57' E 030°11'0 0.0
2015-Sep-02 05:31N 59°57' E 030°11'3 5.3
2015-Sep-02 05:00N 59°54' E 030°12'3 5.3 050 / 41007.0 16.0 18.0
2015-Sep-02 04:28N 59°57' E 030°11'0 0.0
2015-Sep-02 03:31N 59°57' E 030°11'0 0.0
2015-Sep-02 02:31N 59°57' E 030°11'0 0.0
2015-Sep-02 01:31N 59°57' E 030°11'0 0.0
2015-Sep-02 00:31N 59°57' E 030°11'3 5.3
2015-Sep-02 00:00N 59°54' E 030°12'3 5.8 020 / 81013.0 17.115.016.0
2015-Sep-01 23:31N 59°57' E 030°11'3 5.3
2015-Sep-01 23:00N 59°54' E 030°12'3 5.8 330 / 71013.0 17.215.016.0
2015-Sep-01 22:31N 59°57' E 030°11'3 5.3
2015-Sep-01 22:00N 59°54' E 030°12'3 5.8 320 / 71013.0 17.013.016.0
2015-Sep-01 21:31N 59°57' E 030°11'3058.0
2015-Sep-01 21:00N 59°54' E 031°12'3064.1 330 / 81013.0 17.715.018.0
2015-Sep-01 20:31N 59°57' E 030°11'0 0.0
2015-Sep-01 19:31N 59°57' E 030°11'3 5.3
2015-Sep-01 19:00N 59°54' E 030°12'3 5.8 270 / 81013.0 5.4 18.9
2015-Sep-01 18:31N 59°57' E 030°11'3 5.3
2015-Sep-01 18:00N 59°54' E 030°12'3 5.8 270 / 71013.0 5.4 19.3
2015-Sep-01 17:31N 59°57' E 030°11'3 5.3
2015-Sep-01 17:00N 59°54' E 030°12'3 5.8 270 / 61013.0 5.4 19.6
2015-Sep-01 16:31N 59°57' E 030°11'3 5.3
2015-Sep-01 16:00N 59°54' E 030°12'3 5.8 290 / 61013.0 5.4 19.9
2015-Sep-01 15:31N 59°57' E 030°11'0 0.0
2015-Sep-01 14:31N 59°57' E 030°11'3 5.3
2015-Sep-01 14:00N 59°54' E 030°12'3 5.3 280 / 111014.0 21.016.017.0
2015-Sep-01 13:28N 59°57' E 030°11'0 0.0
2015-Sep-01 12:31N 59°57' E 030°11'0 0.0
2015-Sep-01 11:31N 59°57' E 030°11'0 0.0
2015-Sep-01 10:31N 59°57' E 030°11'0 0.0
2015-Sep-01 09:31N 59°57' E 030°11'0 0.0
2015-Sep-01 08:31N 59°57' E 030°11'0 0.0
2015-Sep-01 07:31N 59°57' E 030°11'0 0.0
2015-Sep-01 06:31N 59°57' E 030°11'0 0.0
2015-Sep-01 05:25N 59°57' E 030°11'0 0.0
2015-Sep-01 04:33N 59°57' E 030°11'5 5.2
2015-Sep-01 03:33N 59°56' E 030°02'1110.6
2015-Sep-01 02:33N 59°59' E 029°42'1811.5
2015-Sep-01 01:00N 60°00' E 029°06'2813.8 200 / 71016.0 0.516.516.016.0
2015-Aug-31 23:00N 60°06' E 028°12'1313.4 250 / 121017.027.0 0.517.016.016.0
2015-Aug-31 22:00N 60°12' E 027°48'2815.1 270 / 91017.0 17.115.716.0
2015-Aug-31 20:07N 59°58' E 026°59'813.8
2015-Aug-31 19:33N 59°59' E 026°43'1614.9
2015-Aug-31 18:27N 59°56' E 026°11'1516.8
2015-Aug-31 17:33N 59°51' E 025°42'1616.7
2015-Aug-31 16:33N 59°46' E 025°11'1716.6
2015-Aug-31 15:33N 59°38' E 024°42'1111.2
2015-Aug-31 14:33N 59°27' E 024°46'0 0.0
2015-Aug-31 13:32N 59°27' E 024°46'0 0.0
2015-Aug-31 12:33N 59°27' E 024°46'0 0.0
2015-Aug-31 11:33N 59°27' E 024°46'0 0.0
2015-Aug-31 10:33N 59°27' E 024°46'0 0.0
2015-Aug-31 09:20N 59°27' E 024°46'3 9.1
2015-Aug-31 09:00N 59°30' E 024°48'3 7.1 320 / 31019.0 5.4 18.2
2015-Aug-31 08:33N 59°27' E 024°46'3 5.8
2015-Aug-31 08:00N 59°30' E 024°48'3 7.2 300 / 81019.0 5.4 17.6
2015-Aug-31 07:33N 59°27' E 024°46'0 0.0
2015-Aug-31 06:33N 59°27' E 024°46'0 0.0
2015-Aug-31 05:20N 59°27' E 024°46'6 7.2
2015-Aug-31 04:33N 59°30' E 024°37'6516.3
2015-Aug-31 00:33N 59°18' E 022°30'916.6
2015-Aug-31 00:00N 59°18' E 022°12'818.6 240 / 121018.0 1.017.515.015.8
2015-Aug-30 23:33N 59°12' E 022°02'1616.2
2015-Aug-30 22:33N 59°01' E 021°37'814.8
2015-Aug-30 22:00N 58°54' E 021°30'3517.7 290 / 191018.0 1.017.915.016.0
2015-Aug-30 20:00N 58°24' E 020°54'11416.3 280 / 201019.0 5.4 0.517.8
2015-Aug-30 13:00N 56°54' E 018°42'2716.0 270 / 171021.0 1.020.015.017.0
2015-Aug-30 11:19N 56°37' E 018°05'6517.0
2015-Aug-30 07:28N 55°57' E 016°32'1717.8
2015-Aug-30 06:33N 55°48' E 016°06'1717.7
2015-Aug-30 05:33N 55°40' E 015°39'1818.0
2015-Aug-30 04:33N 55°32' E 015°11'1221.7
2015-Aug-30 04:00N 55°24' E 014°54'614.5 170 / 111017.010.8 17.0
2015-Aug-30 03:33N 55°24' E 014°43'1817.6
2015-Aug-30 02:33N 55°11' E 014°22'1717.4
2015-Aug-30 01:33N 54°60' E 013°59'1119.7
2015-Aug-30 01:00N 54°54' E 013°42'715.7 160 / 201023.0 1.017.715.816.0
2015-Aug-30 00:33N 54°54' E 013°30'1717.5
2015-Aug-29 23:34N 54°49' E 013°01'813.4
2015-Aug-29 23:00N 54°48' E 012°48'1023.3 190 / 231022.8 1.017.515.616.0
2015-Aug-29 22:33N 54°42' E 012°34'1716.6
2015-Aug-29 21:33N 54°30' E 012°14'1616.3
2015-Aug-29 20:33N 54°15' E 012°04'5 4.5
2015-Aug-29 19:32N 54°10' E 012°06'0 0.0
2015-Aug-29 18:32N 54°10' E 012°06'2 3.1
2015-Aug-29 18:00N 54°12' E 012°06'2 3.7 090 / 61023.010.8 20.1
2015-Aug-29 17:32N 54°10' E 012°06'2 3.1
2015-Aug-29 17:00N 54°12' E 012°06'2 3.7 120 / 41023.0 5.4 20.2
2015-Aug-29 16:32N 54°10' E 012°06'2 3.1
2015-Aug-29 16:00N 54°12' E 012°06'2 3.7 040 / 71023.0 20.216.517.0
2015-Aug-29 15:32N 54°10' E 012°06'0 0.0
2015-Aug-29 14:32N 54°10' E 012°06'0 0.0
2015-Aug-29 13:32N 54°10' E 012°06'0 0.0
2015-Aug-29 12:32N 54°10' E 012°06'0 0.0
2015-Aug-29 11:32N 54°10' E 012°06'0 0.0
2015-Aug-29 10:32N 54°10' E 012°06'2 3.1
2015-Aug-29 10:00N 54°12' E 012°06'2 3.7 320 / 101025.0 5.4 18.5
2015-Aug-29 09:32N 54°10' E 012°06'0 0.0
2015-Aug-29 08:26N 54°10' E 012°06'0 0.0
2015-Aug-29 07:32N 54°10' E 012°06'0 0.0
2015-Aug-29 06:29N 54°10' E 012°06'0 0.0
2015-Aug-29 05:32N 54°10' E 012°06'5 4.9
2015-Aug-29 04:33N 54°15' E 012°02'1313.6
2015-Aug-29 03:33N 54°23' E 011°44'1615.7
2015-Aug-29 02:33N 54°32' E 011°21'1017.4
2015-Aug-29 02:00N 54°36' E 011°06'613.4 240 / 231016.0 1.016.314.015.0
2015-Aug-29 01:33N 54°39' E 010°58'1313.4
2015-Aug-29 00:33N 54°52' E 010°52'915.6
2015-Aug-29 00:00N 55°00' E 011°00'7113.0 240 / 171019.0 0.516.312.015.0
2015-Aug-28 18:32N 56°06' E 011°43'2020.7
2015-Aug-28 17:33N 56°13' E 012°18'1817.7
2015-Aug-28 16:33N 56°01' E 012°41'1414.0
2015-Aug-28 15:33N 55°46' E 012°43'5 4.7
2015-Aug-28 14:33N 55°43' E 012°37'0 0.0
2015-Aug-28 13:33N 55°43' E 012°37'0 0.0
2015-Aug-28 12:33N 55°43' E 012°37'0 0.0
2015-Aug-28 11:33N 55°43' E 012°37'0 0.0
2015-Aug-28 10:33N 55°43' E 012°37'0 0.0
2015-Aug-28 09:32N 55°43' E 012°37'1 2.0
2015-Aug-28 09:00N 55°42' E 012°36'1 2.4 300 / 151013.010.8 19.1
2015-Aug-28 08:32N 55°43' E 012°37'0 0.0
2015-Aug-28 07:32N 55°43' E 012°37'0 0.0
2015-Aug-28 06:32N 55°43' E 012°37'0 0.0
2015-Aug-28 05:33N 55°43' E 012°37'0 0.0
2015-Aug-28 04:34N 55°43' E 012°37'4 4.1
2015-Aug-28 03:34N 55°46' E 012°42'1414.3
2015-Aug-28 02:33N 56°00' E 012°40'1716.9
2015-Aug-28 01:33N 56°12' E 012°18'1817.7
2015-Aug-28 00:33N 56°07' E 011°47'4116.1
2015-Aug-27 22:00N 55°42' E 010°48'3020.2 240 / 141007.4 1.016.215.415.5
2015-Aug-27 20:30N 55°14' E 011°06'1313.4
2015-Aug-27 19:33N 55°01' E 011°02'1818.1
2015-Aug-27 18:33N 54°44' E 010°53'1918.8
2015-Aug-27 17:33N 54°34' E 011°20'2019.8
2015-Aug-27 16:33N 54°26' E 011°51'1716.6
2015-Aug-27 15:33N 54°35' E 012°15'1919.5
2015-Aug-27 14:33N 54°46' E 012°42'2020.1
2015-Aug-27 13:32N 54°54' E 013°15'2020.9
2015-Aug-27 12:33N 55°01' E 013°49'2020.3
2015-Aug-27 11:33N 55°12' E 014°18'2120.6
2015-Aug-27 10:34N 55°28' E 014°42'2020.4
2015-Aug-27 09:33N 55°37' E 015°14'2120.7
2015-Aug-27 08:33N 55°48' E 015°46'2121.2
2015-Aug-27 07:33N 55°59' E 016°18'2020.5
2015-Aug-27 06:33N 56°12' E 016°47'2120.7
2015-Aug-27 05:33N 56°30' E 017°04'2121.1
2015-Aug-27 04:34N 56°50' E 017°18'2121.1
2015-Aug-27 03:33N 57°10' E 017°30'2121.0
2015-Aug-27 02:33N 57°30' E 017°40'2121.1
2015-Aug-27 01:33N 57°49' E 017°56'1221.4
2015-Aug-27 01:00N 58°00' E 018°06'80 7.6 190 / 141012.0 1.017.916.016.0
2015-Aug-26 14:30N 59°20' E 018°12'4 0.8
2015-Aug-26 10:00N 59°18' E 018°06'0 0.0 230 / 111012.0 5.4 11.0
2015-Aug-26 09:00N 59°18' E 018°06'0 0.0 230 / 141011.0 5.4 17.0
2015-Aug-26 08:00N 59°18' E 018°06'1 0.6 210 / 121011.0 5.4 17.0
2015-Aug-26 06:26N 59°19' E 018°06'38 8.6
2015-Aug-26 02:00N 59°42' E 019°06'4314.3 190 / 151007.5 0.518.118.018.0
2015-Aug-25 23:00N 59°36' E 020°30'   190 / 311007.5 1.018.918.018.0

Dump ship's entire track history